Time;durP1;ratioP1;P1;durP2;ratioP2;P2;SDS_P1;SDS_P2;PMS_P1;PMS_P2;Temp;Humidity;BMP_temperature;BMP_pressure;BME280_temperature;BME280_humidity;BME280_pressure;Samples;Min_cycle;Max_cycle;Signal;HPM_P1;HPM_P2
2023/06/01 00:00:09;;;;;;;;;;;;;;;20.66;67.27;97156.11;599907;235;68884;-63
2023/06/01 00:02:34;;;;;;;;;;;;;;;20.65;67.30;97147.28;599551;235;67822;-63
2023/06/01 00:05:02;;;;;;;;;;;;;;;20.65;67.25;97149.15;599653;235;65050;-63
2023/06/01 00:07:29;;;;;;;;;;;;;;;20.65;67.33;97141.14;599613;235;66248;-63
2023/06/01 00:09:57;;;;;;;;;;;;;;;20.65;67.31;97141.14;599640;235;68656;-63
2023/06/01 00:12:24;;;;;;;;;;;;;;;20.65;67.30;97141.94;599584;235;65070;-63
2023/06/01 00:14:52;;;;;;;;;;;;;;;20.65;67.28;97138.47;599697;235;69044;-63
2023/06/01 00:17:19;;;;;;;;;;;;;;;20.64;67.34;97139.55;599727;235;66718;-63
2023/06/01 00:19:47;;;;;;;;;;;;;;;20.64;67.31;97132.33;599590;235;63124;-63
2023/06/01 00:22:15;;;;;;;;;;;;;;;20.65;67.33;97133.13;599616;235;68778;-63
2023/06/01 00:24:43;;;;;;;;;;;;;;;20.64;67.34;97131.53;599627;235;68675;-63
2023/06/01 00:27:10;;;;;;;;;;;;;;;20.64;67.34;97136.88;599663;235;65022;-63
2023/06/01 00:29:38;;;;;;;;;;;;;;;20.64;67.40;97139.55;599687;235;68848;-63
2023/06/01 00:32:06;;;;;;;;;;;;;;;20.65;67.38;97141.14;599634;235;68567;-63
2023/06/01 00:34:33;;;;;;;;;;;;;;;20.63;67.37;97133.41;599622;235;65082;-63
2023/06/01 00:37:01;;;;;;;;;;;;;;;20.64;67.35;97139.55;599650;235;68846;-63
2023/06/01 00:39:28;;;;;;;;;;;;;;;20.63;67.39;97133.41;599660;235;66496;-63
2023/06/01 00:41:55;;;;;;;;;;;;;;;20.64;67.39;97134.20;599644;235;63722;-63
2023/06/01 00:44:23;;;;;;;;;;;;;;;20.64;67.38;97131.53;599669;235;66333;-63
2023/06/01 00:46:51;;;;;;;;;;;;;;;20.63;67.43;97133.41;599636;235;66400;-63
2023/06/01 00:49:19;;;;;;;;;;;;;;;20.63;67.35;97132.61;599653;235;65050;-63
2023/06/01 00:51:47;;;;;;;;;;;;;;;20.63;67.44;97127.27;599570;235;69533;-63
2023/06/01 00:54:15;;;;;;;;;;;;;;;20.63;67.40;97128.07;599763;235;68088;-63
2023/06/01 00:56:42;;;;;;;;;;;;;;;20.62;67.42;97118.44;599660;235;62705;-63
2023/06/01 00:59:10;;;;;;;;;;;;;;;20.63;67.45;97121.94;599599;235;66373;-63
2023/06/01 01:01:37;;;;;;;;;;;;;;;20.63;67.46;97127.27;599649;235;66524;-63
2023/06/01 01:04:05;;;;;;;;;;;;;;;20.63;67.45;97127.27;599663;235;63062;-63
2023/06/01 01:06:41;;;;;;;;;;;;;;;20.63;67.41;97129.95;599685;235;68379;-63
2023/06/01 01:09:16;;;;;;;;;;;;;;;20.63;67.42;97140.63;599731;235;68451;-63
2023/06/01 01:11:45;;;;;;;;;;;;;;;20.61;67.50;97133.66;599527;235;62870;-63
2023/06/01 01:14:27;;;;;;;;;;;;;;;20.61;67.41;97133.66;599535;235;67155;-64
2023/06/01 01:17:07;;;;;;;;;;;;;;;20.62;67.43;97137.13;598899;235;69418;-63
2023/06/01 01:19:58;;;;;;;;;;;;;;;20.60;67.47;97132.07;599531;235;62794;-63
2023/06/01 01:22:40;;;;;;;;;;;;;;;20.62;67.48;97131.78;599472;235;68330;-62
2023/06/01 01:25:11;;;;;;;;;;;;;;;20.61;67.49;97139.00;599641;235;68727;-63
2023/06/01 01:27:57;;;;;;;;;;;;;;;20.60;67.51;97131.27;599656;235;66030;-63
2023/06/01 01:30:26;;;;;;;;;;;;;;;20.60;67.48;97123.27;599630;235;68837;-63
2023/06/01 01:32:54;;;;;;;;;;;;;;;20.59;67.61;97122.44;599600;235;66535;-63
2023/06/01 01:35:23;;;;;;;;;;;;;;;20.59;67.55;97121.64;599598;235;65077;-63
2023/06/01 01:37:55;;;;;;;;;;;;;;;20.59;67.60;97125.11;599628;235;66566;-63
2023/06/01 01:40:24;;;;;;;;;;;;;;;20.59;67.55;97126.98;599650;235;47292;-63
2023/06/01 01:42:53;;;;;;;;;;;;;;;20.59;67.62;97127.78;599657;235;63621;-63
2023/06/01 01:45:21;;;;;;;;;;;;;;;20.59;67.61;97121.64;599695;235;68786;-63
2023/06/01 01:47:50;;;;;;;;;;;;;;;20.58;67.56;97120.84;599619;235;68683;-63
2023/06/01 01:50:19;;;;;;;;;;;;;;;20.60;67.58;97126.73;599595;235;64967;-63
2023/06/01 01:52:48;;;;;;;;;;;;;;;20.58;67.59;97120.84;599622;235;68813;-63
2023/06/01 01:55:18;;;;;;;;;;;;;;;20.59;67.56;97122.44;599703;235;66302;-63
2023/06/01 01:57:46;;;;;;;;;;;;;;;20.59;67.59;97121.64;599820;235;63033;-63
2023/06/01 02:00:14;;;;;;;;;;;;;;;20.59;67.63;97122.44;600531;235;68920;-63
2023/06/01 02:02:41;;;;;;;;;;;;;;;20.58;67.66;97117.38;600786;235;68023;-64
2023/06/01 02:05:08;;;;;;;;;;;;;;;20.58;67.62;97123.52;600811;235;62981;-63
2023/06/01 02:07:36;;;;;;;;;;;;;;;20.58;67.59;97123.52;600831;235;68766;-64
2023/06/01 02:10:04;;;;;;;;;;;;;;;20.59;67.63;97126.98;600882;235;69146;-63
2023/06/01 02:12:32;;;;;;;;;;;;;;;20.59;67.62;97133.12;600767;235;63018;-63
2023/06/01 02:14:59;;;;;;;;;;;;;;;20.57;67.67;97129.94;600779;235;67193;-64
2023/06/01 02:17:27;;;;;;;;;;;;;;;20.57;67.66;97129.94;600806;235;66936;-63
2023/06/01 02:19:55;;;;;;;;;;;;;;;20.58;67.64;97131.52;600792;235;62667;-63
2023/06/01 02:22:22;;;;;;;;;;;;;;;20.58;67.63;97126.19;600829;235;68780;-64
2023/06/01 02:24:50;;;;;;;;;;;;;;;20.58;67.64;97134.20;600789;235;68656;-63
2023/06/01 02:27:17;;;;;;;;;;;;;;;20.58;67.64;97133.40;600799;235;64987;-64
2023/06/01 02:29:45;;;;;;;;;;;;;;;20.57;67.67;97124.59;600786;235;68587;-64
2023/06/01 02:32:12;;;;;;;;;;;;;;;20.57;67.62;97135.27;600852;235;68813;-63
2023/06/01 02:34:40;;;;;;;;;;;;;;;20.58;67.67;97128.06;600865;235;63028;-64
2023/06/01 02:37:08;;;;;;;;;;;;;;;20.57;67.59;97131.78;600788;235;69277;-64
2023/06/01 02:39:35;;;;;;;;;;;;;;;20.57;67.66;97137.94;600807;235;68683;-64
2023/06/01 02:42:03;;;;;;;;;;;;;;;20.57;67.72;97137.94;600737;235;65104;-64
2023/06/01 02:44:31;;;;;;;;;;;;;;;20.57;67.71;97137.94;600839;235;66379;-63
2023/06/01 02:46:58;;;;;;;;;;;;;;;20.57;67.73;97132.61;600847;235;66569;-62
2023/06/01 02:49:26;;;;;;;;;;;;;;;20.57;67.69;97134.45;600799;235;63065;-61
2023/06/01 02:51:53;;;;;;;;;;;;;;;20.57;67.73;97129.94;600794;235;66695;-61
2023/06/01 02:54:23;;;;;;;;;;;;;;;20.56;67.68;97144.33;600764;235;45644;-61
2023/06/01 02:56:50;;;;;;;;;;;;;;;20.57;67.72;97142.45;600773;235;65076;-61
2023/06/01 02:59:31;;;;;;;;;;;;;;;20.56;67.76;97147.00;600657;235;45558;-62
2023/06/01 03:02:01;;;;;;;;;;;;;;;20.56;67.74;97143.53;600831;235;44909;-61
2023/06/01 03:04:32;;;;;;;;;;;;;;;20.56;67.77;97138.99;600798;235;62681;-62
2023/06/01 03:07:01;;;;;;;;;;;;;;;20.56;67.77;97147.00;600784;235;66691;-61
2023/06/01 03:09:33;;;;;;;;;;;;;;;20.56;67.79;97144.33;600590;235;49974;-62
2023/06/01 03:12:03;;;;;;;;;;;;;;;20.55;67.67;97145.41;600605;235;43831;-62
2023/06/01 03:14:31;;;;;;;;;;;;;;;20.55;67.83;97150.75;600839;235;69347;-61
2023/06/01 03:16:59;;;;;;;;;;;;;;;20.56;67.79;97143.53;600785;235;69106;-61
2023/06/01 03:19:26;;;;;;;;;;;;;;;20.55;67.83;97153.42;600755;235;65093;-61
2023/06/01 03:21:56;;;;;;;;;;;;;;;20.54;67.78;97143.81;600799;235;68938;-61
2023/06/01 03:24:26;;;;;;;;;;;;;;;20.56;67.77;97148.88;600816;235;68410;-62
2023/06/01 03:26:53;;;;;;;;;;;;;;;20.54;67.77;97141.15;600808;235;64496;-61
2023/06/01 03:29:21;;;;;;;;;;;;;;;20.55;67.77;97141.94;600847;235;69534;-61
2023/06/01 03:31:48;;;;;;;;;;;;;;;20.54;67.81;97138.48;600760;235;66963;-61
2023/06/01 03:34:18;;;;;;;;;;;;;;;20.55;67.74;97137.40;600849;235;41789;-61
2023/06/01 03:36:50;;;;;;;;;;;;;;;20.54;67.81;97141.15;600771;235;66496;-61
2023/06/01 03:39:16;;;;;;;;;;;;;;;20.55;67.76;97139.27;600647;235;66217;-62
2023/06/01 03:41:44;;;;;;;;;;;;;;;20.55;67.80;97147.28;600715;235;66241;-62
2023/06/01 03:44:12;;;;;;;;;;;;;;;20.53;67.78;97150.20;600765;235;68814;-62
2023/06/01 03:46:40;;;;;;;;;;;;;;;20.55;67.83;97149.95;600755;235;67284;-62
2023/06/01 03:49:08;;;;;;;;;;;;;;;20.54;67.77;97148.33;600808;235;65024;-62
2023/06/01 03:51:36;;;;;;;;;;;;;;;20.54;67.85;97141.15;600778;235;68489;-62
2023/06/01 03:54:03;;;;;;;;;;;;;;;20.54;67.85;97146.48;600816;235;68672;-62
2023/06/01 03:56:31;;;;;;;;;;;;;;;20.54;67.85;97149.16;600800;235;65085;-61
2023/06/01 03:59:00;;;;;;;;;;;;;;;20.54;67.84;97138.48;600799;235;46396;-61
2023/06/01 04:01:32;;;;;;;;;;;;;;;20.54;67.83;97145.66;600762;235;69385;-62
2023/06/01 04:04:00;;;;;;;;;;;;;;;20.53;67.88;97144.86;600779;235;65051;-62
2023/06/01 04:06:29;;;;;;;;;;;;;;;20.53;67.91;97139.52;600806;235;68742;-62
2023/06/01 04:08:58;;;;;;;;;;;;;;;20.53;67.84;97142.19;600816;235;68760;-62
2023/06/01 04:11:26;;;;;;;;;;;;;;;20.53;67.90;97141.37;600757;235;65404;-62
2023/06/01 04:13:54;;;;;;;;;;;;;;;20.54;67.81;97148.33;600756;235;69000;-63
2023/06/01 04:16:22;;;;;;;;;;;;;;;20.53;67.89;97146.70;600756;235;66278;-62
2023/06/01 04:18:51;;;;;;;;;;;;;;;20.53;67.88;97150.20;600751;235;65823;-62
2023/06/01 04:21:21;;;;;;;;;;;;;;;20.53;67.96;97149.38;600824;235;45536;-62
2023/06/01 04:23:49;;;;;;;;;;;;;;;20.52;67.87;97145.91;600791;235;68606;-62
2023/06/01 04:26:18;;;;;;;;;;;;;;;20.53;67.95;97149.38;600772;235;65076;-62
2023/06/01 04:28:46;;;;;;;;;;;;;;;20.52;67.86;97151.25;600788;235;68773;-62
2023/06/01 04:31:16;;;;;;;;;;;;;;;20.52;67.94;97150.45;600782;235;66615;-64
2023/06/01 04:33:44;;;;;;;;;;;;;;;20.53;67.87;97154.72;600834;235;65078;-64
2023/06/01 04:36:13;;;;;;;;;;;;;;;20.52;67.90;97156.59;600773;235;68775;-64
2023/06/01 04:38:42;;;;;;;;;;;;;;;20.52;67.97;97153.13;600781;235;68369;-64
2023/06/01 04:41:10;;;;;;;;;;;;;;;20.51;67.86;97154.97;600791;235;63844;-64
2023/06/01 04:43:42;;;;;;;;;;;;;;;20.52;67.88;97158.47;600778;235;69502;-64
2023/06/01 04:46:10;;;;;;;;;;;;;;;20.52;67.90;97155.80;600787;235;66871;-65
2023/06/01 04:48:38;;;;;;;;;;;;;;;20.51;67.95;97154.17;600821;235;65721;-65
2023/06/01 04:51:07;;;;;;;;;;;;;;;20.51;67.98;97149.63;600733;235;69619;-62
2023/06/01 04:53:34;;;;;;;;;;;;;;;20.51;67.95;97146.95;600779;235;66523;-62
2023/06/01 04:56:02;;;;;;;;;;;;;;;20.51;67.99;97146.95;600777;235;64992;-62
2023/06/01 04:58:29;;;;;;;;;;;;;;;20.51;67.93;97151.50;599807;235;66717;-61
2023/06/01 05:00:57;;;;;;;;;;;;;;;20.51;67.98;97148.83;599746;235;68409;-61
2023/06/01 05:03:25;;;;;;;;;;;;;;;20.51;67.92;97146.16;599694;235;65836;-61
2023/06/01 05:05:52;;;;;;;;;;;;;;;20.50;67.95;97145.37;599633;235;65534;-61
2023/06/01 05:08:21;;;;;;;;;;;;;;;20.51;67.95;97149.63;599652;235;68764;-61
2023/06/01 05:10:49;;;;;;;;;;;;;;;20.50;67.87;97145.37;599703;235;63771;-61
2023/06/01 05:13:17;;;;;;;;;;;;;;;20.50;67.95;97145.37;599711;235;69438;-61
2023/06/01 05:15:44;;;;;;;;;;;;;;;20.51;68.03;97143.49;599666;235;66131;-61
2023/06/01 05:18:12;;;;;;;;;;;;;;;20.50;68.04;97136.56;599621;235;65843;-60
2023/06/01 05:20:40;;;;;;;;;;;;;;;20.49;68.02;97133.09;599601;235;68439;-61
2023/06/01 05:23:08;;;;;;;;;;;;;;;20.50;68.08;97132.02;599657;235;65819;-61
2023/06/01 05:25:36;;;;;;;;;;;;;;;20.50;68.02;97128.55;599776;235;65087;-61
2023/06/01 05:28:03;;;;;;;;;;;;;;;20.50;68.09;97129.34;599668;235;69258;-61
2023/06/01 05:30:31;;;;;;;;;;;;;;;20.49;68.03;97129.59;599676;235;68543;-63
2023/06/01 05:32:59;;;;;;;;;;;;;;;20.49;68.04;97124.26;599557;235;65101;-63
2023/06/01 05:35:27;;;;;;;;;;;;;;;20.48;68.04;97134.14;599663;235;68720;-63
2023/06/01 05:37:54;;;;;;;;;;;;;;;20.48;67.98;97134.14;599804;235;66603;-63
2023/06/01 05:40:22;;;;;;;;;;;;;;;20.50;68.05;97139.23;599735;235;62725;-63
2023/06/01 05:42:49;;;;;;;;;;;;;;;20.49;68.10;97127.75;599720;235;66145;-63
2023/06/01 05:45:17;;;;;;;;;;;;;;;20.49;68.03;97137.61;599583;235;69123;-63
2023/06/01 05:47:46;;;;;;;;;;;;;;;20.49;68.08;97138.44;599634;235;46317;-62
2023/06/01 05:50:14;;;;;;;;;;;;;;;20.48;68.01;97136.02;599624;235;68969;-64
2023/06/01 05:52:42;;;;;;;;;;;;;;;20.49;68.03;97140.28;599835;235;69058;-63
2023/06/01 05:55:10;;;;;;;;;;;;;;;20.49;68.25;97130.42;599607;235;62937;-63
2023/06/01 05:57:37;;;;;;;;;;;;;;;20.48;68.11;97139.48;598948;235;68910;-63
2023/06/01 06:00:10;;;;;;;;;;;;;;;20.49;68.18;97138.44;600408;235;67789;-63
2023/06/01 06:02:37;;;;;;;;;;;;;;;20.49;68.21;97134.94;600598;235;41768;-63
2023/06/01 06:05:06;;;;;;;;;;;;;;;20.49;68.20;97138.44;594240;235;70253;-63
2023/06/01 06:07:33;;;;;;;;;;;;;;;20.48;68.24;97141.36;600710;236;68679;-63
2023/06/01 06:10:00;;;;;;;;;;;;;;;20.49;68.00;97140.28;600617;236;65034;-62
2023/06/01 06:12:28;;;;;;;;;;;;;;;20.47;68.23;97132.55;600731;236;68791;-64
2023/06/01 06:14:56;;;;;;;;;;;;;;;20.46;68.62;97133.63;600647;236;68647;-62
2023/06/01 06:17:23;;;;;;;;;;;;;;;20.47;68.40;97135.22;600851;236;65026;-63
2023/06/01 06:19:51;;;;;;;;;;;;;;;20.48;68.94;97136.02;600823;236;66281;-62
2023/06/01 06:22:19;;;;;;;;;;;;;;;20.47;68.84;97137.89;589858;235;68106;-62
2023/06/01 06:24:47;;;;;;;;;;;;;;;20.48;68.91;97138.69;600487;236;65030;-61
2023/06/01 06:27:15;;;;;;;;;;;;;;;20.49;68.77;97142.95;600771;236;66814;-62
2023/06/01 06:29:43;;;;;;;;;;;;;;;20.48;68.34;97136.02;600768;236;66599;-62
2023/06/01 06:32:12;;;;;;;;;;;;;;;20.50;68.96;97141.90;600735;236;61965;-63
2023/06/01 06:34:39;;;;;;;;;;;;;;;20.48;68.38;97141.36;600846;236;66635;-62
2023/06/01 06:37:07;;;;;;;;;;;;;;;20.49;68.64;97137.61;600705;236;66684;-63
2023/06/01 06:39:37;;;;;;;;;;;;;;;20.49;68.39;97135.77;600626;235;42496;-63
2023/06/01 06:42:06;;;;;;;;;;;;;;;20.49;68.45;97138.44;600554;236;68855;-62
2023/06/01 06:44:33;;;;;;;;;;;;;;;20.51;68.56;97140.82;600661;236;68701;-60
2023/06/01 06:47:01;;;;;;;;;;;;;;;20.51;67.99;97138.16;600809;236;64965;-60
2023/06/01 06:49:28;;;;;;;;;;;;;;;20.51;68.52;97138.16;600761;236;68821;-60
2023/06/01 06:51:56;;;;;;;;;;;;;;;20.51;68.41;97138.16;600793;236;66656;-60
2023/06/01 06:54:23;;;;;;;;;;;;;;;20.51;68.51;97146.95;600740;236;62752;-60
2023/06/01 06:56:51;;;;;;;;;;;;;;;20.51;68.53;97141.62;600824;235;66531;-61
2023/06/01 06:59:18;;;;;;;;;;;;;;;20.51;68.51;97141.62;598667;236;68689;-60
2023/06/01 07:01:46;;;;;;;;;;;;;;;20.51;68.43;97133.61;595303;236;62915;-60
2023/06/01 07:04:13;;;;;;;;;;;;;;;20.51;68.45;97136.28;595306;237;66601;-60
2023/06/01 07:06:41;;;;;;;;;;;;;;;20.52;68.51;97132.56;593528;237;68413;-60
2023/06/01 07:09:09;;;;;;;;;;;;;;;20.51;68.39;97128.27;596016;237;62908;-60
2023/06/01 07:11:36;;;;;;;;;;;;;;;20.51;68.36;97130.14;596103;237;68757;-60
2023/06/01 07:14:04;;;;;;;;;;;;;;;20.51;68.30;97127.47;596048;237;69022;-61
2023/06/01 07:16:31;;;;;;;;;;;;;;;20.51;68.37;97122.93;596022;237;65008;-61
2023/06/01 07:18:59;;;;;;;;;;;;;;;20.52;68.33;97127.22;595926;237;68872;-62
2023/06/01 07:21:27;;;;;;;;;;;;;;;20.52;68.39;97127.22;596054;237;68573;-62
2023/06/01 07:23:54;;;;;;;;;;;;;;;20.52;68.29;97123.75;596117;237;66269;-66
2023/06/01 07:26:26;;;;;;;;;;;;;;;20.51;68.43;97120.27;596091;237;66554;-61
2023/06/01 07:28:53;;;;;;;;;;;;;;;20.52;68.33;97126.42;595915;237;66606;-61
2023/06/01 07:31:21;;;;;;;;;;;;;;;20.52;68.40;97129.89;596102;237;63029;-63
2023/06/01 07:33:49;;;;;;;;;;;;;;;20.54;69.14;97122.45;596032;237;66268;-62
2023/06/01 07:36:17;;;;;;;;;;;;;;;20.56;67.68;97117.63;596050;237;66648;-61
2023/06/01 07:38:45;;;;;;;;;;;;;;;20.58;67.93;97112.04;596049;237;64989;-61
2023/06/01 07:41:14;;;;;;;;;;;;;;;20.59;68.06;97119.77;595969;237;66844;-61
2023/06/01 07:43:42;;;;;;;;;;;;;;;20.60;68.14;97115.25;596042;237;68532;-61
2023/06/01 07:46:10;;;;;;;;;;;;;;;20.61;68.07;97117.64;595973;237;65030;-62
2023/06/01 07:48:38;;;;;;;;;;;;;;;20.61;68.06;97114.97;596060;237;66593;-60
2023/06/01 07:51:07;;;;;;;;;;;;;;;20.63;67.96;97116.59;596047;237;68825;-65
2023/06/01 07:53:35;;;;;;;;;;;;;;;20.64;67.59;97112.84;595988;237;62880;-62
2023/06/01 07:56:03;;;;;;;;;;;;;;;20.65;67.69;97109.09;596053;237;68818;-61
2023/06/01 07:58:30;;;;;;;;;;;;;;;20.65;67.40;97104.55;595733;237;68872;-61
2023/06/01 08:00:58;;;;;;;;;;;;;;;20.67;67.33;97105.09;593709;239;65064;-61
2023/06/01 08:03:25;;;;;;;;;;;;;;;20.67;67.62;97104.30;593782;239;68813;-61
2023/06/01 08:05:57;;;;;;;;;;;;;;;20.67;67.53;97101.62;593714;239;66480;-61
2023/06/01 08:08:24;;;;;;;;;;;;;;;20.68;67.62;97092.53;593579;239;65151;-61
2023/06/01 08:10:52;;;;;;;;;;;;;;;20.68;67.63;97088.02;593730;239;68814;-61
2023/06/01 08:13:25;;;;;;;;;;;;;;;20.81;67.52;97092.01;635380;222;35635;-62
2023/06/01 08:15:53;;;;;;;;;;;;;;;20.69;67.49;97094.95;614668;229;65014;-62
2023/06/01 08:18:21;;;;;;;;;;;;;;;20.70;67.51;97095.75;619153;229;64566;-62
2023/06/01 08:20:49;;;;;;;;;;;;;;;20.71;67.39;97086.69;618883;229;64184;-62
2023/06/01 08:23:17;;;;;;;;;;;;;;;20.69;67.50;97084.27;619103;229;63008;-62
2023/06/01 08:25:45;;;;;;;;;;;;;;;20.70;67.50;97088.53;619018;229;64666;-62
2023/06/01 08:28:13;;;;;;;;;;;;;;;20.71;67.43;97089.36;619116;229;62242;-63
2023/06/01 08:30:40;;;;;;;;;;;;;;;20.71;67.41;97089.36;619168;229;65062;-69
2023/06/01 08:33:08;;;;;;;;;;;;;;;20.71;67.23;97084.81;619009;229;64636;-62
2023/06/01 08:35:35;;;;;;;;;;;;;;;20.70;67.53;97080.52;619125;229;64186;-61
2023/06/01 08:38:03;;;;;;;;;;;;;;;20.68;67.48;97079.19;619104;229;65316;-61
2023/06/01 08:40:33;;;;;;;;;;;;;;;20.67;68.24;97080.27;619005;229;64586;-61
2023/06/01 08:43:05;;;;;;;;;;;;;;;20.65;68.27;97077.05;619103;229;62314;-61
2023/06/01 08:45:33;;;;;;;;;;;;;;;20.61;68.38;97072.25;618989;228;62916;-60
2023/06/01 08:48:02;;;;;;;;;;;;;;;20.61;68.37;97066.91;618996;229;62515;-61
2023/06/01 08:50:30;;;;;;;;;;;;;;;20.60;68.43;97069.86;620830;226;62382;-61
2023/06/01 08:52:57;;;;;;;;;;;;;;;20.60;68.44;97072.53;619022;226;63004;-61
2023/06/01 08:55:25;;;;;;;;;;;;;;;20.58;68.37;97070.11;619059;229;62466;-61
2023/06/01 08:57:54;;;;;;;;;;;;;;;20.57;68.45;97063.19;619093;229;62352;-61
2023/06/01 09:00:22;;;;;;;;;;;;;;;20.58;68.42;97055.97;619089;229;65005;-60
2023/06/01 09:02:50;;;;;;;;;;;;;;;20.58;68.45;97063.98;619028;229;64580;-60
2023/06/01 09:05:18;;;;;;;;;;;;;;;20.57;68.49;97057.02;619461;226;64331;-60
2023/06/01 09:07:46;;;;;;;;;;;;;;;20.57;68.37;97057.02;626113;226;62672;-60
2023/06/01 09:10:14;;;;;;;;;;;;;;;20.57;68.46;97057.84;626207;226;64596;-61
2023/06/01 09:12:44;;;;;;;;;;;;;;;20.56;68.39;97052.76;626837;226;64554;-61
2023/06/01 09:15:19;;;;;;;;;;;;;;;20.57;68.49;97049.84;626997;225;65114;-61
2023/06/01 09:17:48;;;;;;;;;;;;;;;20.56;68.67;97053.55;627140;226;62307;-60
2023/06/01 09:20:17;;;;;;;;;;;;;;;20.57;68.82;97049.01;627206;226;64327;-65
2023/06/01 09:22:46;;;;;;;;;;;;;;;20.55;68.82;97043.95;626998;225;65115;-60
2023/06/01 09:25:14;;;;;;;;;;;;;;;20.55;68.22;97053.84;626846;225;66104;-60
2023/06/01 09:27:45;;;;;;;;;;;;;;;20.56;68.09;97058.89;626959;226;64385;-60
2023/06/01 09:30:15;;;;;;;;;;;;;;;20.57;68.26;97060.52;626946;226;63813;-60
2023/06/01 09:32:44;;;;;;;;;;;;;;;20.57;67.63;97065.85;626146;226;62441;-60
2023/06/01 09:35:12;;;;;;;;;;;;;;;20.57;67.34;97060.52;626907;226;65120;-60
2023/06/01 09:37:39;;;;;;;;;;;;;;;20.58;67.63;97067.45;627022;226;65106;-60
2023/06/01 09:40:17;;;;;;;;;;;;;;;20.59;67.72;97062.91;627063;226;62117;-60
2023/06/01 09:42:49;;;;;;;;;;;;;;;20.58;67.69;97066.65;622942;226;67492;-60
2023/06/01 09:45:23;;;;;;;;;;;;;;;20.57;67.63;97063.19;626850;225;63247;-59
2023/06/01 09:47:54;;;;;;;;;;;;;;;20.59;67.98;97066.36;627038;226;63272;-61
2023/06/01 09:50:38;;;;;;;;;;;;;;;20.57;68.04;97071.20;627028;226;62397;-60
2023/06/01 09:53:05;;;;;;;;;;;;;;;20.57;67.99;97076.53;626975;226;64125;-60
2023/06/01 09:55:33;;;;;;;;;;;;;;;20.57;68.26;97073.04;627029;226;63299;-60
2023/06/01 09:58:24;;;;;;;;;;;;;;;20.56;68.27;97074.91;626978;226;61937;-60
2023/06/01 10:00:50;;;;;;;;;;;;;;;20.56;68.33;97077.58;626869;225;65023;-59
2023/06/01 10:03:18;;;;;;;;;;;;;;;20.56;68.37;97080.25;626863;225;64674;-59
2023/06/01 10:05:46;;;;;;;;;;;;;;;20.56;68.37;97074.12;626978;226;64309;-60
2023/06/01 10:08:15;;;;;;;;;;;;;;;20.56;68.33;97077.58;627104;226;62890;-60
2023/06/01 10:10:45;;;;;;;;;;;;;;;20.56;68.31;97080.25;627050;226;64482;-60
2023/06/01 10:13:12;;;;;;;;;;;;;;;20.57;68.26;97081.05;626723;225;62274;-61
2023/06/01 10:15:40;;;;;;;;;;;;;;;20.56;68.38;97082.13;627002;226;62922;-61
2023/06/01 10:18:08;;;;;;;;;;;;;;;20.56;68.36;97085.59;627036;226;64605;-61
2023/06/01 10:20:37;;;;;;;;;;;;;;;20.56;68.38;97090.14;626901;226;65445;-61
2023/06/01 10:23:05;;;;;;;;;;;;;;;20.55;70.11;97089.34;626966;226;63014;-61
2023/06/01 10:25:35;;;;;;;;;;;;;;;20.54;70.06;97085.08;627038;226;62450;-62
2023/06/01 10:28:11;;;;;;;;;;;;;;;20.53;68.96;97086.12;626552;225;64351;-61
2023/06/01 10:30:36;;;;;;;;;;;;;;;20.54;68.48;97081.59;626968;225;62930;-60
2023/06/01 10:33:03;;;;;;;;;;;;;;;20.54;68.15;97078.91;626871;226;62459;-60
2023/06/01 10:35:32;;;;;;;;;;;;;;;20.54;67.94;97078.91;627038;226;62319;-60
2023/06/01 10:38:12;;;;;;;;;;;;;;;20.54;67.93;97085.08;627032;226;62899;-63
2023/06/01 10:40:40;;;;;;;;;;;;;;;20.55;67.86;97083.20;626704;226;64560;-60
2023/06/01 10:43:09;;;;;;;;;;;;;;;20.55;67.84;97083.20;626977;226;64281;-60
2023/06/01 10:45:41;;;;;;;;;;;;;;;20.54;67.81;97078.91;627038;226;66552;-60
2023/06/01 10:48:12;;;;;;;;;;;;;;;20.54;67.78;97073.58;627016;226;62408;-60
2023/06/01 10:50:40;;;;;;;;;;;;;;;20.54;67.76;97077.07;627123;226;64377;-60
2023/06/01 10:53:25;;;;;;;;;;;;;;;20.53;67.74;97070.11;627006;226;65125;-61
2023/06/01 10:56:10;;;;;;;;;;;;;;;20.53;67.61;97067.44;626974;226;62454;-60
2023/06/01 10:58:40;;;;;;;;;;;;;;;20.54;67.77;97070.91;627053;226;64348;-59
2023/06/01 11:01:07;;;;;;;;;;;;;;;20.55;67.79;97062.64;626994;226;65117;-59
2023/06/01 11:03:45;;;;;;;;;;;;;;;20.56;67.50;97058.09;626888;226;64571;-60
2023/06/01 11:06:27;;;;;;;;;;;;;;;20.55;67.06;97043.95;626823;225;65174;-61
2023/06/01 11:08:56;;;;;;;;;;;;;;;20.57;67.07;97035.66;619072;225;65363;-60
2023/06/01 11:11:24;;;;;;;;;;;;;;;20.56;67.08;97024.19;626527;226;62341;-60
2023/06/01 11:14:09;;;;;;;;;;;;;;;20.57;67.04;97032.98;624781;227;64370;-60
2023/06/01 11:16:36;;;;;;;;;;;;;;;20.56;67.59;97016.17;624717;225;63789;-60
2023/06/01 11:19:06;;;;;;;;;;;;;;;20.55;67.12;97014.59;624718;227;62349;-60
2023/06/01 11:21:39;;;;;;;;;;;;;;;20.57;67.34;97014.30;624772;227;64320;-61
2023/06/01 11:24:11;;;;;;;;;;;;;;;20.57;67.34;97012.45;624765;227;63773;-61
2023/06/01 11:26:43;;;;;;;;;;;;;;;20.57;67.30;97006.29;624768;227;62530;-61
2023/06/01 11:29:15;;;;;;;;;;;;;;;20.56;67.32;97005.50;624724;227;62313;-60
2023/06/01 11:31:45;;;;;;;;;;;;;;;20.57;67.34;96996.44;624644;227;62747;-61
2023/06/01 11:34:16;;;;;;;;;;;;;;;20.57;67.46;96984.93;624458;225;44317;-61
2023/06/01 11:36:47;;;;;;;;;;;;;;;20.57;67.31;96982.27;624833;227;64302;-62
2023/06/01 11:39:20;;;;;;;;;;;;;;;20.56;68.08;96981.47;624694;226;65392;-60
2023/06/01 11:41:50;;;;;;;;;;;;;;;20.55;67.43;96981.75;624707;227;62390;-61
2023/06/01 11:44:17;;;;;;;;;;;;;;;20.56;67.85;96994.81;624332;227;64353;-61
2023/06/01 11:46:52;;;;;;;;;;;;;;;20.55;67.66;96990.55;624730;227;63657;-61
2023/06/01 11:49:20;;;;;;;;;;;;;;;20.56;67.89;96991.35;624677;226;64710;-61
2023/06/01 11:51:47;;;;;;;;;;;;;;;20.56;68.06;96984.14;624860;227;64320;-61
2023/06/01 11:54:16;;;;;;;;;;;;;;;20.56;68.15;96973.45;624675;227;65135;-61
2023/06/01 11:56:45;;;;;;;;;;;;;;;20.56;68.12;96975.33;624750;227;64310;-61
2023/06/01 11:59:13;;;;;;;;;;;;;;;20.56;68.10;96972.66;624739;227;64547;-61
2023/06/01 12:01:44;;;;;;;;;;;;;;;20.56;68.06;96969.99;624750;227;62991;-62
2023/06/01 12:04:19;;;;;;;;;;;;;;;20.55;68.02;96966.53;624809;227;62487;-61
2023/06/01 12:06:46;;;;;;;;;;;;;;;20.56;68.03;96968.12;624724;227;64138;-61
2023/06/01 12:09:15;;;;;;;;;;;;;;;20.55;67.98;96974.53;624728;227;65031;-60
2023/06/01 12:11:44;;;;;;;;;;;;;;;20.55;67.91;96963.86;625358;226;62673;-60
2023/06/01 12:14:12;;;;;;;;;;;;;;;20.55;67.89;96968.41;626973;226;64500;-63
2023/06/01 12:16:56;;;;;;;;;;;;;;;20.56;68.03;96968.12;627036;226;63842;-61
2023/06/01 12:19:24;;;;;;;;;;;;;;;20.56;67.84;96981.47;627032;226;62300;-60
2023/06/01 12:21:51;;;;;;;;;;;;;;;20.57;67.98;96976.92;627019;226;62273;-60
2023/06/01 12:24:20;;;;;;;;;;;;;;;20.56;68.08;96976.13;626854;226;62975;-60
2023/06/01 12:26:48;;;;;;;;;;;;;;;20.56;68.11;96981.47;626730;225;63160;-60
2023/06/01 12:29:16;;;;;;;;;;;;;;;20.56;68.11;96981.47;626905;226;65208;-60
2023/06/01 12:31:48;;;;;;;;;;;;;;;20.56;68.09;96988.68;626832;226;65005;-60
2023/06/01 12:34:18;;;;;;;;;;;;;;;20.56;68.13;96986.80;625923;225;63137;-59
2023/06/01 12:36:45;;;;;;;;;;;;;;;20.56;68.10;96999.36;626882;226;65200;-59
2023/06/01 12:39:14;;;;;;;;;;;;;;;20.58;68.07;97013.25;626882;226;65118;-59
2023/06/01 12:41:46;;;;;;;;;;;;;;;20.57;68.05;97016.97;625569;226;63142;-60
2023/06/01 12:44:15;;;;;;;;;;;;;;;20.56;68.17;97013.51;619579;228;63115;-59
2023/06/01 12:46:43;;;;;;;;;;;;;;;20.56;68.19;97005.50;619805;227;62979;-60
2023/06/01 12:49:16;;;;;;;;;;;;;;;20.56;68.26;97000.16;619676;229;64077;-60
2023/06/01 12:51:44;;;;;;;;;;;;;;;20.56;68.21;96994.81;619831;229;62726;-60
2023/06/01 12:54:12;;;;;;;;;;;;;;;20.56;68.27;96994.02;619730;229;65086;-60
2023/06/01 12:56:40;;;;;;;;;;;;;;;20.56;68.23;97000.16;619614;229;65484;-60